sensor_id;sensor_type;location;lat;lon;timestamp;pressure;altitude;pressure_sealevel;temperature;humidity
33286;BME280;19656;50.096;20.014;2023-03-19T00:02:18;99198.42;;;7.12;52.38
33286;BME280;19656;50.096;20.014;2023-03-19T00:07:22;99199.98;;;7.05;52.52
33286;BME280;19656;50.096;20.014;2023-03-19T00:12:26;99203.17;;;7.01;52.98
33286;BME280;19656;50.096;20.014;2023-03-19T00:17:30;99203.95;;;6.95;52.84
33286;BME280;19656;50.096;20.014;2023-03-19T00:22:34;99202.30;;;6.88;53.00
33286;BME280;19656;50.096;20.014;2023-03-19T00:27:37;99204.45;;;6.83;53.24
33286;BME280;19656;50.096;20.014;2023-03-19T00:32:41;99211.77;;;6.77;53.54
33286;BME280;19656;50.096;20.014;2023-03-19T00:37:44;99211.67;;;6.68;53.75
33286;BME280;19656;50.096;20.014;2023-03-19T00:42:47;99211.67;;;6.63;53.65
33286;BME280;19656;50.096;20.014;2023-03-19T00:47:51;99213.81;;;6.59;53.83
33286;BME280;19656;50.096;20.014;2023-03-19T00:52:55;99211.55;;;6.54;54.13
33286;BME280;19656;50.096;20.014;2023-03-19T00:57:59;99207.39;;;6.52;54.26
33286;BME280;19656;50.096;20.014;2023-03-19T01:03:04;99203.45;;;6.41;53.74
33286;BME280;19656;50.096;20.014;2023-03-19T01:08:09;99198.63;;;6.23;53.86
33286;BME280;19656;50.096;20.014;2023-03-19T01:13:13;99194.76;;;6.13;54.35
33286;BME280;19656;50.096;20.014;2023-03-19T01:18:16;99191.77;;;6.13;54.73
33286;BME280;19656;50.096;20.014;2023-03-19T01:23:20;99190.06;;;6.08;54.90
33286;BME280;19656;50.096;20.014;2023-03-19T01:28:23;99185.91;;;5.93;54.96
33286;BME280;19656;50.096;20.014;2023-03-19T01:33:28;99191.09;;;5.82;55.03
33286;BME280;19656;50.096;20.014;2023-03-19T01:38:37;99194.18;;;5.75;55.22
33286;BME280;19656;50.096;20.014;2023-03-19T01:43:48;99199.09;;;5.67;55.29
33286;BME280;19656;50.096;20.014;2023-03-19T01:49:20;99200.83;;;5.62;55.32
33286;BME280;19656;50.096;20.014;2023-03-19T01:54:31;99204.85;;;5.59;55.42
33286;BME280;19656;50.096;20.014;2023-03-19T01:59:55;99195.83;;;5.51;55.71
33286;BME280;19656;50.096;20.014;2023-03-19T02:05:35;99196.91;;;5.45;55.56
33286;BME280;19656;50.096;20.014;2023-03-19T02:10:43;99199.50;;;5.42;55.82
33286;BME280;19656;50.096;20.014;2023-03-19T02:15:48;99192.88;;;5.37;56.00
33286;BME280;19656;50.096;20.014;2023-03-19T02:26:10;99197.58;;;5.24;56.29
33286;BME280;19656;50.096;20.014;2023-03-19T02:31:15;99200.22;;;5.19;56.41
33286;BME280;19656;50.096;20.014;2023-03-19T02:36:20;99202.46;;;5.15;56.41
33286;BME280;19656;50.096;20.014;2023-03-19T02:41:25;99207.82;;;5.13;56.20
33286;BME280;19656;50.096;20.014;2023-03-19T02:46:29;99212.04;;;5.08;56.16
33286;BME280;19656;50.096;20.014;2023-03-19T02:51:33;99220.36;;;4.97;56.39
33286;BME280;19656;50.096;20.014;2023-03-19T02:56:37;99225.05;;;4.89;56.37
33286;BME280;19656;50.096;20.014;2023-03-19T03:01:40;99225.95;;;4.84;56.62
33286;BME280;19656;50.096;20.014;2023-03-19T03:06:44;99225.95;;;4.79;56.63
33286;BME280;19656;50.096;20.014;2023-03-19T03:11:48;99227.70;;;4.74;56.77
33286;BME280;19656;50.096;20.014;2023-03-19T03:16:51;99226.73;;;4.67;56.81
33286;BME280;19656;50.096;20.014;2023-03-19T03:21:55;99228.11;;;4.62;57.13
33286;BME280;19656;50.096;20.014;2023-03-19T03:26:58;99230.29;;;4.61;57.38
33286;BME280;19656;50.096;20.014;2023-03-19T03:32:02;99224.35;;;4.65;57.65
33286;BME280;19656;50.096;20.014;2023-03-19T03:37:05;99220.23;;;4.62;57.59
33286;BME280;19656;50.096;20.014;2023-03-19T03:42:09;99223.11;;;4.60;57.81
33286;BME280;19656;50.096;20.014;2023-03-19T03:47:14;99225.69;;;4.56;57.74
33286;BME280;19656;50.096;20.014;2023-03-19T03:52:20;99227.70;;;4.49;57.69
33286;BME280;19656;50.096;20.014;2023-03-19T03:57:25;99235.80;;;4.48;57.63
33286;BME280;19656;50.096;20.014;2023-03-19T04:02:30;99239.55;;;4.41;57.40
33286;BME280;19656;50.096;20.014;2023-03-19T04:07:33;99242.13;;;4.38;57.68
33286;BME280;19656;50.096;20.014;2023-03-19T04:12:38;99244.73;;;4.28;57.61
33286;BME280;19656;50.096;20.014;2023-03-19T04:17:42;99246.72;;;4.26;58.00
33286;BME280;19656;50.096;20.014;2023-03-19T04:22:45;99243.80;;;4.30;58.17
33286;BME280;19656;50.096;20.014;2023-03-19T04:27:48;99248.52;;;4.25;58.04
33286;BME280;19656;50.096;20.014;2023-03-19T04:32:52;99246.51;;;4.22;58.07
33286;BME280;19656;50.096;20.014;2023-03-19T04:37:56;99245.00;;;4.15;58.26
33286;BME280;19656;50.096;20.014;2023-03-19T04:42:59;99241.70;;;4.08;58.20
33286;BME280;19656;50.096;20.014;2023-03-19T04:48:11;99242.36;;;4.04;58.23
33286;BME280;19656;50.096;20.014;2023-03-19T04:53:15;99240.39;;;3.99;58.19
33286;BME280;19656;50.096;20.014;2023-03-19T04:58:19;99234.05;;;3.95;58.29
33286;BME280;19656;50.096;20.014;2023-03-19T05:03:29;99236.16;;;3.90;58.48
33286;BME280;19656;50.096;20.014;2023-03-19T05:08:33;99232.58;;;3.86;58.60
33286;BME280;19656;50.096;20.014;2023-03-19T05:13:36;99235.13;;;3.89;58.56
33286;BME280;19656;50.096;20.014;2023-03-19T05:18:39;99240.17;;;3.90;58.82
33286;BME280;19656;50.096;20.014;2023-03-19T05:23:43;99235.64;;;3.89;58.56
33286;BME280;19656;50.096;20.014;2023-03-19T05:28:47;99243.51;;;3.90;58.68
33286;BME280;19656;50.096;20.014;2023-03-19T05:33:53;99239.21;;;3.98;58.92
33286;BME280;19656;50.096;20.014;2023-03-19T05:39:00;99239.83;;;4.23;59.66
33286;BME280;19656;50.096;20.014;2023-03-19T05:44:08;99232.52;;;4.26;58.72
33286;BME280;19656;50.096;20.014;2023-03-19T05:49:31;99234.27;;;4.32;59.23
33286;BME280;19656;50.096;20.014;2023-03-19T05:54:35;99235.35;;;4.41;58.85
33286;BME280;19656;50.096;20.014;2023-03-19T05:59:46;99233.51;;;4.54;59.12
33286;BME280;19656;50.096;20.014;2023-03-19T06:05:10;99225.44;;;4.68;58.90
33286;BME280;19656;50.096;20.014;2023-03-19T06:10:15;99229.41;;;4.85;58.59
33286;BME280;19656;50.096;20.014;2023-03-19T06:15:19;99235.35;;;4.91;58.42
33286;BME280;19656;50.096;20.014;2023-03-19T06:20:46;99240.48;;;5.00;58.11
33286;BME280;19656;50.096;20.014;2023-03-19T06:25:50;99238.23;;;5.14;58.04
33286;BME280;19656;50.096;20.014;2023-03-19T06:30:55;99241.30;;;5.30;57.56
33286;BME280;19656;50.096;20.014;2023-03-19T06:36:24;99243.89;;;6.04;59.35
33286;BME280;19656;50.096;20.014;2023-03-19T06:41:28;99247.05;;;6.44;56.15
33286;BME280;19656;50.096;20.014;2023-03-19T06:46:40;99244.73;;;6.53;55.21
33286;BME280;19656;50.096;20.014;2023-03-19T06:51:44;99250.61;;;6.68;54.90
33286;BME280;19656;50.096;20.014;2023-03-19T06:56:48;99254.90;;;6.87;54.84
33286;BME280;19656;50.096;20.014;2023-03-19T07:01:52;99255.04;;;7.08;54.07
33286;BME280;19656;50.096;20.014;2023-03-19T07:06:55;99256.80;;;7.28;53.65
33286;BME280;19656;50.096;20.014;2023-03-19T07:11:59;99249.19;;;7.52;53.57
33286;BME280;19656;50.096;20.014;2023-03-19T07:17:03;99243.26;;;7.77;53.01
33286;BME280;19656;50.096;20.014;2023-03-19T07:22:06;99241.61;;;8.00;52.67
33286;BME280;19656;50.096;20.014;2023-03-19T07:27:10;99236.42;;;8.23;52.44
33286;BME280;19656;50.096;20.014;2023-03-19T07:32:13;99239.63;;;8.44;52.24
33286;BME280;19656;50.096;20.014;2023-03-19T07:37:17;99241.11;;;8.67;51.88
33286;BME280;19656;50.096;20.014;2023-03-19T07:42:24;99231.56;;;8.95;53.25
33286;BME280;19656;50.096;20.014;2023-03-19T07:47:29;99224.70;;;10.41;52.92
33286;BME280;19656;50.096;20.014;2023-03-19T07:52:37;99225.59;;;10.69;48.91
33286;BME280;19656;50.096;20.014;2023-03-19T07:57:44;99223.27;;;11.13;50.06
33286;BME280;19656;50.096;20.014;2023-03-19T08:02:47;99225.52;;;11.49;46.75
33286;BME280;19656;50.096;20.014;2023-03-19T08:07:51;99222.61;;;11.35;46.52
33286;BME280;19656;50.096;20.014;2023-03-19T08:12:54;99214.98;;;11.35;45.99
33286;BME280;19656;50.096;20.014;2023-03-19T08:18:02;99209.30;;;11.38;45.50
33286;BME280;19656;50.096;20.014;2023-03-19T08:23:07;99206.02;;;11.45;45.57
33286;BME280;19656;50.096;20.014;2023-03-19T08:28:10;99199.75;;;11.54;44.60
33286;BME280;19656;50.096;20.014;2023-03-19T08:33:14;99199.20;;;11.66;44.34
33286;BME280;19656;50.096;20.014;2023-03-19T08:38:18;99198.26;;;11.81;44.43
33286;BME280;19656;50.096;20.014;2023-03-19T08:43:21;99198.29;;;11.97;44.96
33286;BME280;19656;50.096;20.014;2023-03-19T08:48:25;99189.81;;;12.09;43.09
33286;BME280;19656;50.096;20.014;2023-03-19T08:53:30;99191.58;;;12.21;41.33
33286;BME280;19656;50.096;20.014;2023-03-19T08:58:34;99190.02;;;12.28;41.38
33286;BME280;19656;50.096;20.014;2023-03-19T09:03:39;99189.02;;;12.38;41.39
33286;BME280;19656;50.096;20.014;2023-03-19T09:08:42;99196.28;;;12.49;41.05
33286;BME280;19656;50.096;20.014;2023-03-19T09:13:46;99197.83;;;12.65;40.65
33286;BME280;19656;50.096;20.014;2023-03-19T09:18:50;99203.34;;;12.94;41.92
33286;BME280;19656;50.096;20.014;2023-03-19T09:23:53;99194.46;;;13.32;39.93
33286;BME280;19656;50.096;20.014;2023-03-19T09:28:57;99188.60;;;13.44;39.14
33286;BME280;19656;50.096;20.014;2023-03-19T09:34:01;99183.23;;;13.55;38.78
33286;BME280;19656;50.096;20.014;2023-03-19T09:39:05;99185.20;;;13.65;38.09
33286;BME280;19656;50.096;20.014;2023-03-19T09:44:12;99175.52;;;13.77;37.91
33286;BME280;19656;50.096;20.014;2023-03-19T09:49:35;99167.61;;;13.90;37.40
33286;BME280;19656;50.096;20.014;2023-03-19T09:54:45;99151.61;;;14.09;37.14
33286;BME280;19656;50.096;20.014;2023-03-19T09:59:51;99156.96;;;14.25;36.90
33286;BME280;19656;50.096;20.014;2023-03-19T10:10:30;99153.95;;;14.68;36.31
33286;BME280;19656;50.096;20.014;2023-03-19T10:15:39;99146.34;;;14.88;36.77
33286;BME280;19656;50.096;20.014;2023-03-19T10:25:57;99143.36;;;15.03;35.62
33286;BME280;19656;50.096;20.014;2023-03-19T10:36:11;99127.41;;;15.26;35.27
33286;BME280;19656;50.096;20.014;2023-03-19T10:41:37;99126.79;;;15.49;34.26
33286;BME280;19656;50.096;20.014;2023-03-19T10:46:46;99113.73;;;15.85;34.67
33286;BME280;19656;50.096;20.014;2023-03-19T10:51:50;99106.12;;;16.14;34.17
33286;BME280;19656;50.096;20.014;2023-03-19T10:57:22;99099.72;;;16.41;33.80
33286;BME280;19656;50.096;20.014;2023-03-19T11:02:29;99091.96;;;16.58;33.45
33286;BME280;19656;50.096;20.014;2023-03-19T11:07:35;99078.88;;;16.72;32.01
33286;BME280;19656;50.096;20.014;2023-03-19T11:12:39;99076.80;;;16.89;30.93
33286;BME280;19656;50.096;20.014;2023-03-19T11:17:49;99076.28;;;16.89;30.97
33286;BME280;19656;50.096;20.014;2023-03-19T11:23:01;99079.14;;;17.17;35.25
33286;BME280;19656;50.096;20.014;2023-03-19T11:28:07;99076.77;;;17.31;30.67
33286;BME280;19656;50.096;20.014;2023-03-19T11:38:53;99057.50;;;16.82;29.60
33286;BME280;19656;50.096;20.014;2023-03-19T11:44:04;99052.30;;;16.90;30.51
33286;BME280;19656;50.096;20.014;2023-03-19T11:54:31;99039.51;;;16.95;30.62
33286;BME280;19656;50.096;20.014;2023-03-19T11:59:49;99021.20;;;17.11;29.52
33286;BME280;19656;50.096;20.014;2023-03-19T12:05:32;99017.37;;;17.30;29.75
33286;BME280;19656;50.096;20.014;2023-03-19T12:27:40;99010.09;;;18.31;30.95
33286;BME280;19656;50.096;20.014;2023-03-19T12:38:19;98991.21;;;18.59;30.05
33286;BME280;19656;50.096;20.014;2023-03-19T12:43:52;98981.75;;;18.60;29.71
33286;BME280;19656;50.096;20.014;2023-03-19T12:49:21;98972.85;;;18.57;29.72
33286;BME280;19656;50.096;20.014;2023-03-19T12:54:30;98968.89;;;18.63;30.35
33286;BME280;19656;50.096;20.014;2023-03-19T12:59:40;98963.53;;;18.81;30.39
33286;BME280;19656;50.096;20.014;2023-03-19T13:10:20;98952.52;;;19.08;29.74
33286;BME280;19656;50.096;20.014;2023-03-19T13:15:29;98948.21;;;19.24;31.05
33286;BME280;19656;50.096;20.014;2023-03-19T13:20:49;98953.05;;;19.69;36.05
33286;BME280;19656;50.096;20.014;2023-03-19T13:25:59;98951.33;;;20.09;34.33
33286;BME280;19656;50.096;20.014;2023-03-19T13:31:05;98941.53;;;20.20;33.33
33286;BME280;19656;50.096;20.014;2023-03-19T13:36:12;98938.79;;;20.19;32.18
33286;BME280;19656;50.096;20.014;2023-03-19T13:46:37;98932.70;;;20.06;28.43
33286;BME280;19656;50.096;20.014;2023-03-19T13:51:42;98930.14;;;19.94;27.92
33286;BME280;19656;50.096;20.014;2023-03-19T14:07:35;98924.19;;;19.34;26.54
33286;BME280;19656;50.096;20.014;2023-03-19T14:12:41;98925.88;;;19.08;28.98
33286;BME280;19656;50.096;20.014;2023-03-19T14:23:19;98921.76;;;18.56;28.12
33286;BME280;19656;50.096;20.014;2023-03-19T14:28:46;98922.60;;;18.33;28.24
33286;BME280;19656;50.096;20.014;2023-03-19T14:34:06;98921.77;;;18.17;27.53
33286;BME280;19656;50.096;20.014;2023-03-19T14:39:20;98917.93;;;17.99;27.99
33286;BME280;19656;50.096;20.014;2023-03-19T14:50:09;98918.29;;;17.67;27.81
33286;BME280;19656;50.096;20.014;2023-03-19T14:55:20;98919.30;;;17.55;28.81
33286;BME280;19656;50.096;20.014;2023-03-19T15:00:23;98921.05;;;17.54;31.40
33286;BME280;19656;50.096;20.014;2023-03-19T15:05:31;98917.27;;;17.38;29.98
33286;BME280;19656;50.096;20.014;2023-03-19T15:22:20;98921.45;;;16.96;29.16
33286;BME280;19656;50.096;20.014;2023-03-19T15:27:26;98923.17;;;16.83;29.17
33286;BME280;19656;50.096;20.014;2023-03-19T15:32:33;98916.01;;;16.73;29.30
33286;BME280;19656;50.096;20.014;2023-03-19T15:37:59;98913.16;;;16.64;29.66
33286;BME280;19656;50.096;20.014;2023-03-19T15:43:04;98912.80;;;16.57;29.49
33286;BME280;19656;50.096;20.014;2023-03-19T15:48:17;98916.85;;;16.51;29.95
33286;BME280;19656;50.096;20.014;2023-03-19T15:53:23;98924.42;;;16.41;30.31
33286;BME280;19656;50.096;20.014;2023-03-19T15:58:37;98927.83;;;16.26;30.28
33286;BME280;19656;50.096;20.014;2023-03-19T16:03:43;98934.81;;;16.16;30.57
33286;BME280;19656;50.096;20.014;2023-03-19T16:08:52;98934.54;;;16.02;30.74
33286;BME280;19656;50.096;20.014;2023-03-19T16:13:58;98940.39;;;15.91;31.14
33286;BME280;19656;50.096;20.014;2023-03-19T16:19:04;98937.09;;;15.77;31.21
33286;BME280;19656;50.096;20.014;2023-03-19T16:29:29;98948.94;;;15.57;31.84
33286;BME280;19656;50.096;20.014;2023-03-19T16:34:42;98954.08;;;15.40;31.98
33286;BME280;19656;50.096;20.014;2023-03-19T16:45:26;98965.68;;;15.15;32.16
33286;BME280;19656;50.096;20.014;2023-03-19T16:50:32;98960.94;;;15.03;32.79
33286;BME280;19656;50.096;20.014;2023-03-19T16:55:37;98955.56;;;14.99;33.21
33286;BME280;19656;50.096;20.014;2023-03-19T17:00:42;98955.48;;;14.88;33.01
33286;BME280;19656;50.096;20.014;2023-03-19T17:05:46;98969.39;;;14.71;32.79
33286;BME280;19656;50.096;20.014;2023-03-19T17:10:52;98971.48;;;14.54;33.75
33286;BME280;19656;50.096;20.014;2023-03-19T17:15:57;98980.88;;;14.41;34.05
33286;BME280;19656;50.096;20.014;2023-03-19T17:21:29;98982.86;;;14.25;34.31
33286;BME280;19656;50.096;20.014;2023-03-19T17:26:33;98989.83;;;14.13;33.96
33286;BME280;19656;50.096;20.014;2023-03-19T17:31:36;98988.10;;;14.05;34.64
33286;BME280;19656;50.096;20.014;2023-03-19T17:36:41;98988.51;;;14.01;34.95
33286;BME280;19656;50.096;20.014;2023-03-19T17:41:46;98984.30;;;13.85;35.58
33286;BME280;19656;50.096;20.014;2023-03-19T17:46:54;98992.30;;;13.69;35.93
33286;BME280;19656;50.096;20.014;2023-03-19T17:51:58;98992.42;;;13.58;36.32
33286;BME280;19656;50.096;20.014;2023-03-19T17:57:02;98993.42;;;13.45;36.86
33286;BME280;19656;50.096;20.014;2023-03-19T18:02:26;98995.35;;;13.33;37.27
33286;BME280;19656;50.096;20.014;2023-03-19T18:07:31;98997.88;;;13.20;37.87
33286;BME280;19656;50.096;20.014;2023-03-19T18:12:35;98992.98;;;13.07;37.81
33286;BME280;19656;50.096;20.014;2023-03-19T18:17:40;98992.37;;;12.95;37.60
33286;BME280;19656;50.096;20.014;2023-03-19T18:22:46;98999.86;;;12.83;37.96
33286;BME280;19656;50.096;20.014;2023-03-19T18:27:49;99002.60;;;12.72;38.84
33286;BME280;19656;50.096;20.014;2023-03-19T18:32:58;99000.20;;;12.64;39.12
33286;BME280;19656;50.096;20.014;2023-03-19T18:38:03;99003.41;;;12.53;39.07
33286;BME280;19656;50.096;20.014;2023-03-19T18:43:09;99009.10;;;12.43;39.62
33286;BME280;19656;50.096;20.014;2023-03-19T18:48:26;99012.15;;;12.33;40.39
33286;BME280;19656;50.096;20.014;2023-03-19T18:53:29;99021.92;;;12.20;41.84
33286;BME280;19656;50.096;20.014;2023-03-19T18:58:33;99024.29;;;12.09;41.50
33286;BME280;19656;50.096;20.014;2023-03-19T19:03:37;99018.45;;;12.00;41.46
33286;BME280;19656;50.096;20.014;2023-03-19T19:08:40;99021.84;;;11.95;42.49
33286;BME280;19656;50.096;20.014;2023-03-19T19:13:50;99019.56;;;12.00;43.45
33286;BME280;19656;50.096;20.014;2023-03-19T19:18:58;99021.92;;;11.86;43.44
33286;BME280;19656;50.096;20.014;2023-03-19T19:24:02;99026.52;;;11.68;43.81
33286;BME280;19656;50.096;20.014;2023-03-19T19:29:05;99028.73;;;11.53;44.55
33286;BME280;19656;50.096;20.014;2023-03-19T19:34:13;99029.60;;;11.40;45.03
33286;BME280;19656;50.096;20.014;2023-03-19T19:39:17;99035.28;;;11.26;45.59
33286;BME280;19656;50.096;20.014;2023-03-19T19:44:24;99029.94;;;11.16;45.94
33286;BME280;19656;50.096;20.014;2023-03-19T19:49:28;99032.52;;;11.06;46.13
33286;BME280;19656;50.096;20.014;2023-03-19T19:54:31;99033.37;;;10.95;46.47
33286;BME280;19656;50.096;20.014;2023-03-19T19:59:34;99037.60;;;10.84;46.97
33286;BME280;19656;50.096;20.014;2023-03-19T20:04:38;99036.11;;;10.72;47.28
33286;BME280;19656;50.096;20.014;2023-03-19T20:09:42;99035.30;;;10.59;47.34
33286;BME280;19656;50.096;20.014;2023-03-19T20:14:45;99033.64;;;10.54;48.48
33286;BME280;19656;50.096;20.014;2023-03-19T20:19:49;99034.85;;;10.60;47.80
33286;BME280;19656;50.096;20.014;2023-03-19T20:24:59;99033.95;;;10.49;47.67
33286;BME280;19656;50.096;20.014;2023-03-19T20:30:20;99035.06;;;10.37;48.33
33286;BME280;19656;50.096;20.014;2023-03-19T20:35:29;99036.06;;;10.26;48.90
33286;BME280;19656;50.096;20.014;2023-03-19T20:40:41;99038.71;;;10.17;49.26
33286;BME280;19656;50.096;20.014;2023-03-19T20:45:46;99038.49;;;10.09;49.17
33286;BME280;19656;50.096;20.014;2023-03-19T20:50:49;99038.84;;;10.03;49.10
33286;BME280;19656;50.096;20.014;2023-03-19T20:55:53;99032.24;;;9.98;49.26
33286;BME280;19656;50.096;20.014;2023-03-19T21:00:57;99029.58;;;9.89;49.60
33286;BME280;19656;50.096;20.014;2023-03-19T21:06:08;99026.88;;;9.84;50.00
33286;BME280;19656;50.096;20.014;2023-03-19T21:11:17;99031.13;;;9.78;50.50
33286;BME280;19656;50.096;20.014;2023-03-19T21:16:23;99033.57;;;9.73;50.60
33286;BME280;19656;50.096;20.014;2023-03-19T21:21:33;99039.71;;;9.67;50.74
33286;BME280;19656;50.096;20.014;2023-03-19T21:26:38;99038.65;;;9.64;50.70
33286;BME280;19656;50.096;20.014;2023-03-19T21:31:45;99043.11;;;9.61;50.90
33286;BME280;19656;50.096;20.014;2023-03-19T21:36:50;99037.81;;;9.58;51.22
33286;BME280;19656;50.096;20.014;2023-03-19T21:41:53;99040.78;;;9.52;51.43
33286;BME280;19656;50.096;20.014;2023-03-19T21:46:57;99040.45;;;9.48;51.59
33286;BME280;19656;50.096;20.014;2023-03-19T21:52:00;99039.61;;;9.48;51.44
33286;BME280;19656;50.096;20.014;2023-03-19T21:57:04;99043.80;;;9.39;51.57
33286;BME280;19656;50.096;20.014;2023-03-19T22:02:37;99036.41;;;9.33;51.81
33286;BME280;19656;50.096;20.014;2023-03-19T22:07:41;99034.75;;;9.28;52.21
33286;BME280;19656;50.096;20.014;2023-03-19T22:12:45;99038.67;;;9.24;52.07
33286;BME280;19656;50.096;20.014;2023-03-19T22:17:49;99040.69;;;9.26;51.58
33286;BME280;19656;50.096;20.014;2023-03-19T22:22:54;99038.13;;;9.46;50.39
33286;BME280;19656;50.096;20.014;2023-03-19T22:27:58;99029.60;;;9.62;50.50
33286;BME280;19656;50.096;20.014;2023-03-19T22:33:12;99024.38;;;9.72;49.17
33286;BME280;19656;50.096;20.014;2023-03-19T22:38:18;99027.25;;;9.78;49.19
33286;BME280;19656;50.096;20.014;2023-03-19T22:43:33;99027.83;;;9.89;48.15
33286;BME280;19656;50.096;20.014;2023-03-19T22:48:38;99022.84;;;9.95;48.74
33286;BME280;19656;50.096;20.014;2023-03-19T22:53:42;99022.98;;;9.90;49.95
33286;BME280;19656;50.096;20.014;2023-03-19T22:58:45;99031.93;;;9.70;50.55
33286;BME280;19656;50.096;20.014;2023-03-19T23:03:50;99034.75;;;9.58;51.08
33286;BME280;19656;50.096;20.014;2023-03-19T23:08:56;99030.02;;;9.54;51.06
33286;BME280;19656;50.096;20.014;2023-03-19T23:14:00;99031.07;;;9.42;51.81
33286;BME280;19656;50.096;20.014;2023-03-19T23:19:04;99028.05;;;9.33;51.92
33286;BME280;19656;50.096;20.014;2023-03-19T23:24:10;99029.35;;;9.23;52.41
33286;BME280;19656;50.096;20.014;2023-03-19T23:29:20;99028.31;;;9.16;52.74
33286;BME280;19656;50.096;20.014;2023-03-19T23:34:26;99027.85;;;9.18;52.19
33286;BME280;19656;50.096;20.014;2023-03-19T23:39:30;99025.48;;;9.22;51.55
33286;BME280;19656;50.096;20.014;2023-03-19T23:44:35;99019.34;;;9.34;50.96
33286;BME280;19656;50.096;20.014;2023-03-19T23:49:39;99018.08;;;9.37;50.96
33286;BME280;19656;50.096;20.014;2023-03-19T23:54:43;99020.89;;;9.44;50.74
33286;BME280;19656;50.096;20.014;2023-03-19T23:59:48;99016.21;;;9.51;49.60
